MSC Rossella — 3FFA6 — position and weather

sailwx.info

Track history (hours):
 
Tides and Currents Weather Stations Pressure Air Temp Water Temp Dewpoint Dewpoint Depression Visibility Wind Speed Wind Dir Waves Ship Positions

MSC Rossella

Last reported at 2018-May-18 11:52 UTC. Time now 2018-May-21 01:08 UTC.
Position N 28°31' W 014°54'.

Length 243 m; draft 9.7 m.

Type: Cargo ship. MMSI: 356864000.

Date/timePositionNaut miles runAvg speedWind from/ knotsBaromVisibWave heightAir tempDewpointWater temp
2018-May-18 11:52N 28°31' W 014°54'716.7
2018-May-18 11:28N 28°27' W 014°59'916.6
2018-May-18 10:55N 28°20' W 015°06'716.2
2018-May-18 10:30N 28°15' W 015°11'816.5
2018-May-18 10:00N 28°09' W 015°17'713.5
2018-May-18 09:30N 28°07' W 015°25'  
2018-May-15 00:28N 09°28' W 016°14'816.8
2018-May-15 00:01N 09°22' W 016°09'1017.2
2018-May-14 23:25N 09°14' W 016°03'917.2
2018-May-14 22:55N 09°08' W 015°57'717.1
2018-May-14 22:30N 09°02' W 015°53'1416.9
2018-May-14 21:40N 08°53' W 015°42'316.9
2018-May-14 21:28N 08°50' W 015°40'817.1
2018-May-14 21:00N 08°45' W 015°34'916.9
2018-May-14 20:29N 08°40' W 015°27'817.1
2018-May-14 20:00N 08°34' W 015°21'916.8
2018-May-14 19:29N 08°28' W 015°14'816.8
2018-May-14 19:01N 08°23' W 015°08'1016.4
2018-May-14 18:24N 08°16' W 015°00'716.7
2018-May-14 18:00N 08°12' W 014°55'917.1
2018-May-14 17:29N 08°06' W 014°48'817.4
2018-May-14 17:00N 08°01' W 014°42'3717.4
2018-May-14 14:53N 07°37' W 014°14'717.3
2018-May-14 14:30N 07°33' W 014°09'  
Track history (hours):
 
Tides and Currents Weather Stations Pressure Air Temp Water Temp Dewpoint Dewpoint Depression Visibility Wind Speed Wind Dir Waves Ship Positions

MSC Rossella

Last reported at 2018-May-18 11:52 UTC. Time now 2018-May-21 01:08 UTC.
Position N 28°31' W 014°54'.

Length 243 m; draft 9.7 m.

Type: Cargo ship. MMSI: 356864000.

Date/timePositionNaut miles runAvg speedWind from/ knotsBaromVisibWave heightAir tempDewpointWater temp
2018-May-18 11:52N 28°31' W 014°54'716.7
2018-May-18 11:28N 28°27' W 014°59'916.6
2018-May-18 10:55N 28°20' W 015°06'716.2
2018-May-18 10:30N 28°15' W 015°11'816.5
2018-May-18 10:00N 28°09' W 015°17'713.5
2018-May-18 09:30N 28°07' W 015°25'  
2018-May-15 00:28N 09°28' W 016°14'816.8
2018-May-15 00:01N 09°22' W 016°09'1017.2
2018-May-14 23:25N 09°14' W 016°03'917.2
2018-May-14 22:55N 09°08' W 015°57'717.1
2018-May-14 22:30N 09°02' W 015°53'1416.9
2018-May-14 21:40N 08°53' W 015°42'316.9
2018-May-14 21:28N 08°50' W 015°40'817.1
2018-May-14 21:00N 08°45' W 015°34'916.9
2018-May-14 20:29N 08°40' W 015°27'817.1
2018-May-14 20:00N 08°34' W 015°21'916.8
2018-May-14 19:29N 08°28' W 015°14'816.8
2018-May-14 19:01N 08°23' W 015°08'1016.4
2018-May-14 18:24N 08°16' W 015°00'716.7
2018-May-14 18:00N 08°12' W 014°55'917.1
2018-May-14 17:29N 08°06' W 014°48'817.4
2018-May-14 17:00N 08°01' W 014°42'3717.4
2018-May-14 14:53N 07°37' W 014°14'717.3
2018-May-14 14:30N 07°33' W 014°09'  

Dump ship's entire track history